createdAt,value
2022-12-17T00:02:37.682Z,13.97
2022-12-17T00:05:24.011Z,15.90
2022-12-17T00:08:15.199Z,20.37
2022-12-17T00:11:00.959Z,26.23
2022-12-17T00:13:46.655Z,20.60
2022-12-17T00:16:33.608Z,20.67
2022-12-17T00:19:19.348Z,26.60
2022-12-17T00:22:05.035Z,15.53
2022-12-17T00:24:50.864Z,19.33
2022-12-17T00:27:37.457Z,19.60
2022-12-17T00:30:23.375Z,15.63
2022-12-17T00:33:11.469Z,20.33
2022-12-17T00:35:56.985Z,17.60
2022-12-17T00:38:42.675Z,15.67
2022-12-17T00:41:28.473Z,22.50
2022-12-17T00:44:14.216Z,16.27
2022-12-17T00:46:59.596Z,19.93
2022-12-17T00:49:46.896Z,22.03
2022-12-17T00:52:32.301Z,23.67
2022-12-17T00:55:17.846Z,24.67
2022-12-17T00:58:03.498Z,19.60
2022-12-17T01:00:49.253Z,22.43
2022-12-17T01:03:35.199Z,23.10
2022-12-17T01:06:22.569Z,16.77
2022-12-17T01:09:10.736Z,17.03
2022-12-17T01:11:56.522Z,17.00
2022-12-17T01:14:42.762Z,19.07
2022-12-17T01:17:37.087Z,18.20
2022-12-17T01:20:23.425Z,20.03
2022-12-17T01:23:10.768Z,22.50
2022-12-17T01:25:56.473Z,17.20
2022-12-17T01:28:43.098Z,16.30
2022-12-17T01:31:34.674Z,20.57
2022-12-17T01:34:21.152Z,33.30
2022-12-17T01:37:06.871Z,25.83
2022-12-17T01:39:53.997Z,23.37
2022-12-17T01:42:39.541Z,18.90
2022-12-17T01:45:34.608Z,16.97
2022-12-17T01:48:23.641Z,23.63
2022-12-17T01:51:13.341Z,25.23
2022-12-17T01:54:02.892Z,19.20
2022-12-17T01:56:51.505Z,21.30
2022-12-17T01:59:39.508Z,23.80
2022-12-17T02:02:25.270Z,15.80
2022-12-17T02:05:10.791Z,24.43
2022-12-17T02:08:09.441Z,28.73
2022-12-17T02:11:04.579Z,25.90
2022-12-17T02:13:55.862Z,16.73
2022-12-17T02:16:48.032Z,18.30
2022-12-17T02:19:47.991Z,11.23
2022-12-17T02:22:52.632Z,12.57
2022-12-17T02:25:49.284Z,17.67
2022-12-17T02:28:36.816Z,12.07
2022-12-17T02:31:23.445Z,15.37
2022-12-17T02:34:08.912Z,19.93
2022-12-17T02:36:51.153Z,10.60
2022-12-17T02:39:37.184Z,7.07
2022-12-17T02:42:24.342Z,12.50
2022-12-17T02:45:12.246Z,12.63
2022-12-17T02:47:58.183Z,13.10
2022-12-17T02:50:43.680Z,13.60
2022-12-17T02:53:29.114Z,10.73
2022-12-17T02:56:14.857Z,7.50
2022-12-17T02:59:14.965Z,10.23
2022-12-17T03:02:02.039Z,9.10
2022-12-17T03:04:47.974Z,13.50
2022-12-17T03:07:33.444Z,8.33
2022-12-17T03:10:24.480Z,17.50
2022-12-17T03:13:10.075Z,10.93
2022-12-17T03:15:55.886Z,11.00
2022-12-17T03:18:42.811Z,7.70
2022-12-17T03:21:28.306Z,6.23
2022-12-17T03:24:14.110Z,10.83
2022-12-17T03:26:59.800Z,8.97
2022-12-17T03:29:45.633Z,8.97
2022-12-17T03:32:31.385Z,6.87
2022-12-17T03:35:18.074Z,8.30
2022-12-17T03:38:03.453Z,17.00
2022-12-17T03:40:49.046Z,15.10
2022-12-17T03:43:32.402Z,12.63
2022-12-17T03:46:17.995Z,15.70
2022-12-17T03:49:03.554Z,12.03
2022-12-17T03:51:50.628Z,8.40
2022-12-17T03:54:36.030Z,12.77
2022-12-17T03:57:21.637Z,11.27
2022-12-17T04:00:15.590Z,19.47
2022-12-17T04:03:01.205Z,13.40
2022-12-17T04:05:46.870Z,15.60
2022-12-17T04:08:33.650Z,13.70
2022-12-17T04:11:19.099Z,10.97
2022-12-17T04:14:04.892Z,13.47
2022-12-17T04:16:51.596Z,15.87
2022-12-17T04:19:45.423Z,21.13
2022-12-17T04:22:30.918Z,13.43
2022-12-17T04:25:33.076Z,18.83
2022-12-17T04:28:18.621Z,10.17
2022-12-17T04:31:04.506Z,11.97
2022-12-17T04:33:50.111Z,16.63
2022-12-17T04:36:35.795Z,13.20
2022-12-17T04:39:21.724Z,16.90
2022-12-17T04:42:08.776Z,12.63
2022-12-17T04:44:54.181Z,15.90
2022-12-17T04:47:39.856Z,13.03
2022-12-17T04:50:25.874Z,12.97
2022-12-17T04:53:18.814Z,21.07
2022-12-17T04:56:04.552Z,14.10
2022-12-17T04:58:51.539Z,21.23
2022-12-17T05:01:37.098Z,24.97
2022-12-17T05:04:22.949Z,18.67
2022-12-17T05:07:08.601Z,16.87
2022-12-17T05:09:54.028Z,14.20
2022-12-17T05:12:39.595Z,25.10
2022-12-17T05:15:27.282Z,16.40
2022-12-17T05:18:12.790Z,19.80
2022-12-17T05:20:58.195Z,15.43
2022-12-17T05:23:43.970Z,18.20
2022-12-17T05:26:37.205Z,13.90
2022-12-17T05:29:22.652Z,13.20
2022-12-17T05:32:09.812Z,15.53
2022-12-17T05:34:55.564Z,22.83
2022-12-17T05:37:43.052Z,14.30
2022-12-17T05:40:29.594Z,15.33
2022-12-17T05:43:15.809Z,14.53
2022-12-17T05:46:03.989Z,21.60
2022-12-17T05:48:51.742Z,15.10
2022-12-17T05:51:39.083Z,13.37
2022-12-17T05:54:25.761Z,22.63
2022-12-17T05:57:11.553Z,27.70
2022-12-17T05:59:57.389Z,17.97
2022-12-17T06:02:43.466Z,21.47
2022-12-17T06:05:30.798Z,23.33
2022-12-17T06:08:21.991Z,19.57
2022-12-17T06:11:07.698Z,23.20
2022-12-17T06:13:53.511Z,22.27
2022-12-17T06:16:54.186Z,29.07
2022-12-17T06:19:39.659Z,27.63
2022-12-17T06:22:26.887Z,26.17
2022-12-17T06:25:12.396Z,22.67
2022-12-17T06:27:57.793Z,16.10
2022-12-17T06:30:48.909Z,23.03
2022-12-17T06:33:33.942Z,15.90
2022-12-17T06:36:31.021Z,14.50
2022-12-17T06:39:18.373Z,14.63
2022-12-17T06:42:04.971Z,11.50
2022-12-17T06:44:50.967Z,15.73
2022-12-17T06:47:36.769Z,17.27
2022-12-17T06:50:23.033Z,20.87
2022-12-17T06:53:18.014Z,26.20
2022-12-17T06:56:04.683Z,16.67
2022-12-17T06:58:50.422Z,30.87
2022-12-17T07:01:36.161Z,27.47
2022-12-17T07:04:22.088Z,12.47
2022-12-17T07:07:07.560Z,21.93
2022-12-17T07:09:53.240Z,20.40
2022-12-17T07:12:41.270Z,14.30
2022-12-17T07:15:27.399Z,11.60
2022-12-17T07:18:14.313Z,20.67
2022-12-17T07:21:00.217Z,14.67
2022-12-17T07:23:46.156Z,15.50
2022-12-17T07:26:31.889Z,13.50
2022-12-17T07:29:18.789Z,17.40
2022-12-17T07:32:04.898Z,20.20
2022-12-17T07:34:50.484Z,22.03
2022-12-17T07:37:35.913Z,19.77
2022-12-17T07:40:21.263Z,31.03
2022-12-17T07:43:06.731Z,37.00
2022-12-17T07:45:53.783Z,26.60
2022-12-17T07:48:39.624Z,25.93
2022-12-17T07:51:25.066Z,14.80
2022-12-17T07:54:10.294Z,12.50
2022-12-17T07:57:07.593Z,24.97
2022-12-17T07:59:53.015Z,10.80
2022-12-17T08:02:40.363Z,11.10
2022-12-17T08:05:26.435Z,15.73
2022-12-17T08:08:12.366Z,26.23
2022-12-17T08:10:57.854Z,10.77
2022-12-17T08:13:43.317Z,14.83
2022-12-17T08:16:28.989Z,25.80
2022-12-17T08:19:15.850Z,16.90
2022-12-17T08:22:01.625Z,19.47
2022-12-17T08:24:47.380Z,18.33
2022-12-17T08:27:32.971Z,24.00
2022-12-17T08:30:18.720Z,34.57
2022-12-17T08:33:04.546Z,29.80
2022-12-17T08:35:51.338Z,27.30
2022-12-17T08:38:36.835Z,21.63
2022-12-17T08:41:22.258Z,13.53
2022-12-17T08:44:07.685Z,17.63
2022-12-17T08:46:53.404Z,15.93
2022-12-17T08:49:50.309Z,24.47
2022-12-17T08:52:37.615Z,17.57
2022-12-17T08:55:24.104Z,17.17
2022-12-17T08:58:12.997Z,21.13
2022-12-17T09:00:58.835Z,24.70
2022-12-17T09:03:43.653Z,18.00
2022-12-17T09:06:29.152Z,19.67
2022-12-17T09:09:16.006Z,13.33
2022-12-17T09:12:02.098Z,14.67
2022-12-17T09:14:47.996Z,18.43
2022-12-17T09:17:33.377Z,15.20
2022-12-17T09:20:19.196Z,14.07
2022-12-17T09:23:04.821Z,29.57
2022-12-17T09:25:56.567Z,25.90
2022-12-17T09:28:43.783Z,11.50
2022-12-17T09:31:35.369Z,9.67
2022-12-17T09:34:22.864Z,16.80
2022-12-17T09:37:08.621Z,16.23
2022-12-17T09:39:54.019Z,9.90
2022-12-17T09:42:51.790Z,10.83
2022-12-17T09:45:47.739Z,15.67
2022-12-17T09:48:40.785Z,11.50
2022-12-17T09:51:39.696Z,11.10
2022-12-17T09:54:43.610Z,12.07
2022-12-17T09:57:32.404Z,12.67
2022-12-17T10:00:22.334Z,6.53
2022-12-17T10:03:10.804Z,16.37
2022-12-17T10:05:56.541Z,9.30
2022-12-17T10:08:42.132Z,14.10
2022-12-17T10:11:38.217Z,16.80
2022-12-17T10:14:34.086Z,16.60
2022-12-17T10:17:21.284Z,17.43
2022-12-17T10:20:10.937Z,10.00
2022-12-17T10:23:04.254Z,10.80
2022-12-17T10:25:51.137Z,8.30
2022-12-17T10:28:39.754Z,12.37
2022-12-17T10:31:28.796Z,11.33
2022-12-17T10:34:16.476Z,12.53
2022-12-17T10:37:07.631Z,15.17
2022-12-17T10:39:53.787Z,5.93
2022-12-17T10:42:42.097Z,18.67
2022-12-17T10:45:41.931Z,5.00
2022-12-17T10:48:39.255Z,12.53
2022-12-17T10:51:38.215Z,5.67
2022-12-17T10:54:29.201Z,12.20
2022-12-17T10:57:18.062Z,12.10
2022-12-17T11:00:03.948Z,13.33
2022-12-17T11:02:46.356Z,16.93
2022-12-17T11:05:33.394Z,7.17
2022-12-17T11:08:21.183Z,13.87
2022-12-17T11:11:08.293Z,8.23
2022-12-17T11:14:00.327Z,10.20
2022-12-17T11:16:51.971Z,13.77
2022-12-17T11:19:50.822Z,9.20
2022-12-17T11:22:50.122Z,14.00
2022-12-17T11:26:01.065Z,11.50
2022-12-17T11:28:49.109Z,6.20
2022-12-17T11:31:51.737Z,13.13
2022-12-17T11:34:59.269Z,6.50
2022-12-17T11:37:53.022Z,12.37
2022-12-17T11:40:46.555Z,5.10
2022-12-17T11:43:41.815Z,10.90
2022-12-17T11:46:50.103Z,6.47
2022-12-17T11:49:45.747Z,5.63
2022-12-17T11:52:41.472Z,9.57
2022-12-17T11:55:36.454Z,6.57
2022-12-17T11:58:25.471Z,10.30
2022-12-17T12:01:22.126Z,6.70
2022-12-17T12:04:17.640Z,8.67
2022-12-17T12:07:15.617Z,12.80
2022-12-17T12:10:09.204Z,10.53
2022-12-17T12:13:05.611Z,12.53
2022-12-17T12:16:03.251Z,11.40
2022-12-17T12:19:01.062Z,6.50
2022-12-17T12:21:57.327Z,16.27
2022-12-17T12:25:02.172Z,16.90
2022-12-17T12:27:54.808Z,11.67
2022-12-17T12:30:50.553Z,7.80
2022-12-17T12:33:46.670Z,11.17
2022-12-17T12:36:37.592Z,13.37
2022-12-17T12:39:25.544Z,13.93
2022-12-17T12:42:18.001Z,13.47
2022-12-17T12:45:12.357Z,9.10
2022-12-17T12:48:06.204Z,10.37
2022-12-17T12:51:04.238Z,10.00
2022-12-17T12:53:51.210Z,15.17
2022-12-17T12:56:48.210Z,14.23
2022-12-17T12:59:45.342Z,14.30
2022-12-17T13:02:50.487Z,15.03
2022-12-17T13:05:34.421Z,12.93
2022-12-17T13:08:04.650Z,19.23
2022-12-17T13:10:35.106Z,14.10
2022-12-17T13:13:14.634Z,14.63
2022-12-17T13:15:47.434Z,15.03
2022-12-17T13:18:25.862Z,21.13
2022-12-17T13:21:02.861Z,14.00
2022-12-17T13:23:34.409Z,13.90
2022-12-17T13:26:18.140Z,12.53
2022-12-17T13:29:02.036Z,11.93
2022-12-17T13:31:41.213Z,16.33
2022-12-17T13:34:17.313Z,17.73
2022-12-17T13:36:53.810Z,14.77
2022-12-17T13:39:34.075Z,14.10
2022-12-17T13:42:04.797Z,16.37
2022-12-17T13:44:40.290Z,13.57
2022-12-17T13:47:22.754Z,13.80
2022-12-17T13:50:31.617Z,12.93
2022-12-17T13:52:43.678Z,11.37
2022-12-17T13:55:21.144Z,14.70
2022-12-17T13:57:51.788Z,13.33
2022-12-17T14:00:23.151Z,11.43
2022-12-17T14:02:52.196Z,13.93
2022-12-17T14:05:27.711Z,13.27
2022-12-17T14:07:58.809Z,10.87
2022-12-17T14:10:27.270Z,13.03
2022-12-17T14:13:05.712Z,10.07
2022-12-17T14:15:34.367Z,11.33
2022-12-17T14:18:03.757Z,12.10
2022-12-17T14:20:34.723Z,11.90
2022-12-17T14:23:05.379Z,17.03
2022-12-17T14:25:38.066Z,12.93
2022-12-17T14:28:21.642Z,11.70
2022-12-17T14:31:24.830Z,14.90
2022-12-17T14:33:39.592Z,13.20
2022-12-17T14:36:10.075Z,9.53
2022-12-17T14:38:39.234Z,13.53
2022-12-17T14:41:27.143Z,13.50
2022-12-17T14:44:02.230Z,10.77
2022-12-17T14:46:32.521Z,18.10
2022-12-17T14:49:02.971Z,15.00
2022-12-17T14:51:34.374Z,12.87
2022-12-17T14:54:22.503Z,16.27
2022-12-17T14:56:51.283Z,16.70
2022-12-17T14:59:32.498Z,17.50
2022-12-17T15:02:03.761Z,18.13
2022-12-17T15:04:33.268Z,23.80
2022-12-17T15:07:01.433Z,19.13
2022-12-17T15:09:29.538Z,23.90
2022-12-17T15:11:57.771Z,15.73
2022-12-17T15:14:27.327Z,14.90
2022-12-17T15:16:57.024Z,17.63
2022-12-17T15:19:25.309Z,20.20
2022-12-17T15:21:53.497Z,21.13
2022-12-17T15:24:22.485Z,14.60
2022-12-17T15:26:51.023Z,15.37
2022-12-17T15:29:19.343Z,16.80
2022-12-17T15:31:49.163Z,16.33
2022-12-17T15:34:17.317Z,20.77
2022-12-17T15:36:45.418Z,15.87
2022-12-17T15:39:13.838Z,23.50
2022-12-17T15:41:59.784Z,17.90
2022-12-17T15:44:28.368Z,14.07
2022-12-17T15:46:57.966Z,14.03
2022-12-17T15:49:26.093Z,21.00
2022-12-17T15:51:54.257Z,24.07
2022-12-17T15:54:22.460Z,21.43
2022-12-17T15:56:54.861Z,18.07
2022-12-17T15:59:23.483Z,24.67
2022-12-17T16:01:51.884Z,23.33
2022-12-17T16:04:25.237Z,17.40
2022-12-17T16:06:54.017Z,17.30
2022-12-17T16:09:24.644Z,18.00
2022-12-17T16:11:55.598Z,15.40
2022-12-17T16:14:24.294Z,13.47
2022-12-17T16:16:52.899Z,23.47
2022-12-17T16:19:23.695Z,16.43
2022-12-17T16:21:52.115Z,21.40
2022-12-17T16:24:21.212Z,19.87
2022-12-17T16:26:49.465Z,16.23
2022-12-17T16:29:17.725Z,17.07
2022-12-17T16:31:46.262Z,14.93
2022-12-17T16:34:15.687Z,15.07
2022-12-17T16:36:45.339Z,19.23
2022-12-17T16:39:17.509Z,14.53
2022-12-17T16:41:46.030Z,24.77
2022-12-17T16:44:14.426Z,12.40
2022-12-17T16:46:44.284Z,15.37
2022-12-17T16:49:15.580Z,11.63
2022-12-17T16:51:46.283Z,30.73
2022-12-17T16:54:17.032Z,17.83
2022-12-17T16:56:46.798Z,15.17
2022-12-17T16:59:16.520Z,12.17
2022-12-17T17:01:46.696Z,14.20
2022-12-17T17:04:16.502Z,10.60
2022-12-17T17:06:48.399Z,13.47
2022-12-17T17:09:17.611Z,13.47
2022-12-17T17:11:51.176Z,13.13
2022-12-17T17:14:21.433Z,12.43
2022-12-17T17:16:49.748Z,12.50
2022-12-17T17:19:18.501Z,13.67
2022-12-17T17:21:52.826Z,8.03
2022-12-17T17:24:24.166Z,7.43
2022-12-17T17:26:53.373Z,6.67
2022-12-17T17:29:21.554Z,6.63
2022-12-17T17:34:38.263Z,4.63
2022-12-17T17:37:08.131Z,4.33
2022-12-17T17:39:36.306Z,3.97
2022-12-17T17:42:04.818Z,4.03
2022-12-17T17:44:33.301Z,5.23
2022-12-17T17:47:01.688Z,8.00
2022-12-17T17:49:30.095Z,7.00
2022-12-17T17:52:13.836Z,5.83
2022-12-17T17:54:43.466Z,7.83
2022-12-17T17:57:12.059Z,4.30
2022-12-17T17:59:40.761Z,4.00
2022-12-17T18:02:10.899Z,3.67
2022-12-17T18:04:40.087Z,3.60
2022-12-17T18:07:24.724Z,4.27
2022-12-17T18:09:55.132Z,4.67
2022-12-17T18:12:41.483Z,4.07
2022-12-17T18:15:15.382Z,3.40
2022-12-17T18:17:45.179Z,2.90
2022-12-17T18:20:14.063Z,3.80
2022-12-17T18:22:42.322Z,4.17
2022-12-17T18:25:11.861Z,3.67
2022-12-17T18:27:40.162Z,3.50
2022-12-17T18:30:09.458Z,3.80
2022-12-17T18:32:37.560Z,4.33
2022-12-17T18:35:06.443Z,4.17
2022-12-17T18:37:34.668Z,4.80
2022-12-17T18:40:03.061Z,3.97
2022-12-17T18:42:50.331Z,3.93
2022-12-17T18:45:18.583Z,6.30
2022-12-17T18:47:46.882Z,4.53
2022-12-17T18:50:15.163Z,3.93
2022-12-17T18:52:43.364Z,4.03
2022-12-17T18:55:34.999Z,3.60
2022-12-17T18:58:04.719Z,3.97
2022-12-17T19:00:33.022Z,6.87
2022-12-17T19:03:05.836Z,5.27
2022-12-17T19:05:34.405Z,5.70
2022-12-17T19:08:02.767Z,6.63
2022-12-17T19:10:30.898Z,5.87
2022-12-17T19:12:59.633Z,7.40
2022-12-17T19:15:29.347Z,11.33
2022-12-17T19:17:57.663Z,3.13
2022-12-17T19:20:25.764Z,5.53
2022-12-17T19:22:55.094Z,4.30
2022-12-17T19:25:23.616Z,3.83
2022-12-17T19:27:51.910Z,4.30
2022-12-17T19:30:23.337Z,8.53
2022-12-17T19:32:53.814Z,9.47
2022-12-17T19:35:22.155Z,5.23
2022-12-17T19:37:53.234Z,5.40
2022-12-17T19:40:21.772Z,5.70
2022-12-17T19:42:50.706Z,6.17
2022-12-17T19:45:19.118Z,10.17
2022-12-17T19:47:47.588Z,3.80
2022-12-17T19:50:23.177Z,3.60
2022-12-17T19:52:51.451Z,3.70
2022-12-17T19:55:21.564Z,3.57
2022-12-17T19:57:49.920Z,3.13
2022-12-17T20:00:19.521Z,3.43
2022-12-17T20:02:47.797Z,3.90
2022-12-17T20:05:16.101Z,4.73
2022-12-17T20:07:45.700Z,5.00
2022-12-17T20:10:13.869Z,9.43
2022-12-17T20:12:42.055Z,5.50
2022-12-17T20:15:10.833Z,4.90
2022-12-17T20:17:38.973Z,10.67
2022-12-17T20:20:08.275Z,5.83
2022-12-17T20:22:36.669Z,6.07
2022-12-17T20:25:09.698Z,5.73
2022-12-17T20:27:37.877Z,5.57
2022-12-17T20:30:07.525Z,7.10
2022-12-17T20:32:35.766Z,5.93
2022-12-17T20:35:04.007Z,6.20
2022-12-17T20:37:32.183Z,4.57
2022-12-17T20:40:00.411Z,6.30
2022-12-17T20:42:31.108Z,6.33
2022-12-17T20:44:59.204Z,6.03
2022-12-17T20:47:27.597Z,7.20
2022-12-17T20:49:55.786Z,11.20
2022-12-17T20:52:23.971Z,5.13
2022-12-17T20:54:52.789Z,6.33
2022-12-17T20:57:21.001Z,6.10
2022-12-17T20:59:51.786Z,5.40
2022-12-17T21:02:20.051Z,5.23
2022-12-17T21:04:49.733Z,5.10
2022-12-17T21:07:18.114Z,5.17
2022-12-17T21:09:46.316Z,6.23
2022-12-17T21:12:14.545Z,5.87
2022-12-17T21:14:42.819Z,5.13
2022-12-17T21:17:14.620Z,7.40
2022-12-17T21:19:42.956Z,4.77
2022-12-17T21:22:11.195Z,7.93
2022-12-17T21:24:39.536Z,4.40
2022-12-17T21:27:14.281Z,7.13
2022-12-17T21:29:42.927Z,4.97
2022-12-17T21:32:12.448Z,5.63
2022-12-17T21:34:41.007Z,4.37
2022-12-17T21:37:11.430Z,4.97
2022-12-17T21:39:39.733Z,7.53
2022-12-17T21:42:25.555Z,5.40
2022-12-17T21:44:53.683Z,5.63
2022-12-17T21:47:23.953Z,5.30
2022-12-17T21:49:52.159Z,5.27
2022-12-17T21:52:20.306Z,4.47
2022-12-17T21:54:48.628Z,5.57
2022-12-17T21:57:16.791Z,6.10
2022-12-17T21:59:44.947Z,6.90
2022-12-17T22:02:13.156Z,4.10
2022-12-17T22:04:43.115Z,3.60
2022-12-17T22:07:12.225Z,3.67
2022-12-17T22:09:53.731Z,4.43
2022-12-17T22:12:46.645Z,4.30
2022-12-17T22:15:14.731Z,3.90
2022-12-17T22:17:43.651Z,4.00
2022-12-17T22:20:13.764Z,4.00
2022-12-17T22:22:42.130Z,5.17
2022-12-17T22:25:11.511Z,4.03
2022-12-17T22:27:41.007Z,4.23
2022-12-17T22:30:31.360Z,4.03
2022-12-17T22:33:02.551Z,4.50
2022-12-17T22:36:51.226Z,4.00
2022-12-17T22:41:22.248Z,4.53
2022-12-17T22:44:42.605Z,3.97
2022-12-17T22:44:43.455Z,3.50
2022-12-17T22:47:09.862Z,4.53
2022-12-17T22:49:40.963Z,4.47
2022-12-17T22:52:13.455Z,3.70
2022-12-17T22:54:43.795Z,3.83
2022-12-17T22:57:35.102Z,4.67
2022-12-17T23:00:00.132Z,8.63
2022-12-17T23:02:28.309Z,4.10
2022-12-17T23:04:56.458Z,5.83
2022-12-17T23:07:31.564Z,4.20
2022-12-17T23:10:00.213Z,4.97
2022-12-17T23:12:46.101Z,5.03
2022-12-17T23:15:14.333Z,4.17
2022-12-17T23:17:42.535Z,4.40
2022-12-17T23:20:12.044Z,4.07
2022-12-17T23:22:41.882Z,4.20
2022-12-17T23:25:11.385Z,3.80
2022-12-17T23:27:39.760Z,4.40
2022-12-17T23:30:09.650Z,4.40
2022-12-17T23:32:38.808Z,3.93
2022-12-17T23:35:08.388Z,5.60
2022-12-17T23:37:40.198Z,3.90
2022-12-17T23:40:12.303Z,4.60
2022-12-17T23:42:40.940Z,4.53
2022-12-17T23:45:11.549Z,4.27
2022-12-17T23:47:40.580Z,4.63
2022-12-17T23:50:11.714Z,3.50
2022-12-17T23:52:40.405Z,6.23
2022-12-17T23:55:11.678Z,6.57
2022-12-17T23:57:40.581Z,8.83
